sensor_id;sensor_type;location;lat;lon;timestamp;P1;durP1;ratioP1;P2;durP2;ratioP2
18425;SDS011;9340;48.756;9.226;2024-03-17T00:01:07;8.97;;;7.40;;
18425;SDS011;9340;48.756;9.226;2024-03-17T00:03:33;8.23;;;7.43;;
18425;SDS011;9340;48.756;9.226;2024-03-17T00:06:01;8.40;;;7.53;;
18425;SDS011;9340;48.756;9.226;2024-03-17T00:08:27;10.07;;;8.97;;
18425;SDS011;9340;48.756;9.226;2024-03-17T00:10:55;9.77;;;8.50;;
18425;SDS011;9340;48.756;9.226;2024-03-17T00:13:21;8.77;;;7.87;;
18425;SDS011;9340;48.756;9.226;2024-03-17T00:15:48;8.57;;;7.73;;
18425;SDS011;9340;48.756;9.226;2024-03-17T00:18:14;8.80;;;7.90;;
18425;SDS011;9340;48.756;9.226;2024-03-17T00:20:40;8.90;;;8.00;;
18425;SDS011;9340;48.756;9.226;2024-03-17T00:23:08;10.00;;;9.00;;
18425;SDS011;9340;48.756;9.226;2024-03-17T00:25:37;8.67;;;7.43;;
18425;SDS011;9340;48.756;9.226;2024-03-17T00:28:03;8.60;;;7.70;;
18425;SDS011;9340;48.756;9.226;2024-03-17T00:30:30;8.87;;;7.97;;
18425;SDS011;9340;48.756;9.226;2024-03-17T00:32:56;8.57;;;7.67;;
18425;SDS011;9340;48.756;9.226;2024-03-17T00:35:24;7.63;;;6.83;;
18425;SDS011;9340;48.756;9.226;2024-03-17T00:37:50;8.83;;;7.83;;
18425;SDS011;9340;48.756;9.226;2024-03-17T00:40:19;8.83;;;8.03;;
18425;SDS011;9340;48.756;9.226;2024-03-17T00:42:45;7.67;;;6.87;;
18425;SDS011;9340;48.756;9.226;2024-03-17T00:45:12;11.30;;;7.30;;
18425;SDS011;9340;48.756;9.226;2024-03-17T00:47:38;9.07;;;7.03;;
18425;SDS011;9340;48.756;9.226;2024-03-17T00:50:05;9.00;;;6.93;;
18425;SDS011;9340;48.756;9.226;2024-03-17T00:52:33;9.17;;;7.80;;
18425;SDS011;9340;48.756;9.226;2024-03-17T00:55:00;8.27;;;7.47;;
18425;SDS011;9340;48.756;9.226;2024-03-17T00:57:27;8.67;;;7.57;;
18425;SDS011;9340;48.756;9.226;2024-03-17T00:59:53;8.87;;;7.87;;
18425;SDS011;9340;48.756;9.226;2024-03-17T01:02:19;10.40;;;9.30;;
18425;SDS011;9340;48.756;9.226;2024-03-17T01:04:46;10.13;;;9.07;;
18425;SDS011;9340;48.756;9.226;2024-03-17T01:07:12;10.10;;;9.07;;
18425;SDS011;9340;48.756;9.226;2024-03-17T01:09:39;10.63;;;8.87;;
18425;SDS011;9340;48.756;9.226;2024-03-17T01:12:04;12.13;;;10.93;;
18425;SDS011;9340;48.756;9.226;2024-03-17T01:14:33;10.27;;;9.37;;
18425;SDS011;9340;48.756;9.226;2024-03-17T01:16:59;9.37;;;8.57;;
18425;SDS011;9340;48.756;9.226;2024-03-17T01:19:29;12.23;;;10.57;;
18425;SDS011;9340;48.756;9.226;2024-03-17T01:21:55;11.57;;;10.23;;
18425;SDS011;9340;48.756;9.226;2024-03-17T01:24:22;10.60;;;9.50;;
18425;SDS011;9340;48.756;9.226;2024-03-17T01:26:49;10.63;;;9.57;;
18425;SDS011;9340;48.756;9.226;2024-03-17T01:29:16;10.50;;;9.50;;
18425;SDS011;9340;48.756;9.226;2024-03-17T01:31:43;12.40;;;11.07;;
18425;SDS011;9340;48.756;9.226;2024-03-17T01:34:09;12.03;;;10.27;;
18425;SDS011;9340;48.756;9.226;2024-03-17T01:36:36;9.93;;;8.97;;
18425;SDS011;9340;48.756;9.226;2024-03-17T01:39:03;14.27;;;10.33;;
18425;SDS011;9340;48.756;9.226;2024-03-17T01:41:30;10.43;;;9.37;;
18425;SDS011;9340;48.756;9.226;2024-03-17T01:43:57;11.80;;;10.13;;
18425;SDS011;9340;48.756;9.226;2024-03-17T01:46:23;10.77;;;9.67;;
18425;SDS011;9340;48.756;9.226;2024-03-17T01:48:52;11.27;;;10.07;;
18425;SDS011;9340;48.756;9.226;2024-03-17T01:51:18;12.57;;;11.27;;
18425;SDS011;9340;48.756;9.226;2024-03-17T01:53:45;11.80;;;10.60;;
18425;SDS011;9340;48.756;9.226;2024-03-17T01:56:11;10.83;;;9.80;;
18425;SDS011;9340;48.756;9.226;2024-03-17T01:58:39;11.83;;;10.60;;
18425;SDS011;9340;48.756;9.226;2024-03-17T02:01:08;11.93;;;10.73;;
18425;SDS011;9340;48.756;9.226;2024-03-17T02:03:35;11.57;;;10.47;;
18425;SDS011;9340;48.756;9.226;2024-03-17T02:06:02;13.17;;;11.80;;
18425;SDS011;9340;48.756;9.226;2024-03-17T02:08:31;13.17;;;11.07;;
18425;SDS011;9340;48.756;9.226;2024-03-17T02:11:13;16.80;;;13.03;;
18425;SDS011;9340;48.756;9.226;2024-03-17T02:13:50;13.10;;;11.77;;
18425;SDS011;9340;48.756;9.226;2024-03-17T02:16:17;15.67;;;10.17;;
18425;SDS011;9340;48.756;9.226;2024-03-17T02:18:44;12.10;;;10.97;;
18425;SDS011;9340;48.756;9.226;2024-03-17T02:21:12;11.73;;;10.63;;
18425;SDS011;9340;48.756;9.226;2024-03-17T02:23:41;13.00;;;11.73;;
18425;SDS011;9340;48.756;9.226;2024-03-17T02:26:07;12.77;;;11.47;;
18425;SDS011;9340;48.756;9.226;2024-03-17T02:28:40;14.90;;;12.63;;
18425;SDS011;9340;48.756;9.226;2024-03-17T02:31:07;13.00;;;11.70;;
18425;SDS011;9340;48.756;9.226;2024-03-17T02:33:35;11.90;;;10.57;;
18425;SDS011;9340;48.756;9.226;2024-03-17T02:36:01;13.20;;;11.90;;
18425;SDS011;9340;48.756;9.226;2024-03-17T02:38:32;14.50;;;13.00;;
18425;SDS011;9340;48.756;9.226;2024-03-17T02:41:18;14.17;;;12.03;;
18425;SDS011;9340;48.756;9.226;2024-03-17T02:43:44;13.33;;;12.13;;
18425;SDS011;9340;48.756;9.226;2024-03-17T02:46:11;14.87;;;13.27;;
18425;SDS011;9340;48.756;9.226;2024-03-17T02:48:38;13.43;;;12.03;;
18425;SDS011;9340;48.756;9.226;2024-03-17T02:51:09;14.03;;;12.57;;
18425;SDS011;9340;48.756;9.226;2024-03-17T02:53:36;13.10;;;11.77;;
18425;SDS011;9340;48.756;9.226;2024-03-17T02:56:06;13.93;;;12.47;;
18425;SDS011;9340;48.756;9.226;2024-03-17T02:58:35;12.23;;;11.03;;
18425;SDS011;9340;48.756;9.226;2024-03-17T03:01:02;13.07;;;11.77;;
18425;SDS011;9340;48.756;9.226;2024-03-17T03:03:29;14.67;;;12.07;;
18425;SDS011;9340;48.756;9.226;2024-03-17T03:05:56;15.27;;;13.83;;
18425;SDS011;9340;48.756;9.226;2024-03-17T03:08:23;13.40;;;12.10;;
18425;SDS011;9340;48.756;9.226;2024-03-17T03:10:50;14.57;;;13.07;;
18425;SDS011;9340;48.756;9.226;2024-03-17T03:13:17;15.20;;;13.67;;
18425;SDS011;9340;48.756;9.226;2024-03-17T03:15:46;12.77;;;11.57;;
18425;SDS011;9340;48.756;9.226;2024-03-17T03:18:12;14.00;;;12.60;;
18425;SDS011;9340;48.756;9.226;2024-03-17T03:20:39;14.57;;;13.07;;
18425;SDS011;9340;48.756;9.226;2024-03-17T03:23:06;15.57;;;14.10;;
18425;SDS011;9340;48.756;9.226;2024-03-17T03:25:33;17.70;;;15.80;;
18425;SDS011;9340;48.756;9.226;2024-03-17T03:28:00;21.57;;;19.00;;
18425;SDS011;9340;48.756;9.226;2024-03-17T03:30:27;18.20;;;16.13;;
18425;SDS011;9340;48.756;9.226;2024-03-17T03:32:56;15.03;;;13.07;;
18425;SDS011;9340;48.756;9.226;2024-03-17T03:35:22;15.67;;;14.07;;
18425;SDS011;9340;48.756;9.226;2024-03-17T03:37:52;14.30;;;12.90;;
18425;SDS011;9340;48.756;9.226;2024-03-17T03:40:18;16.47;;;14.77;;
18425;SDS011;9340;48.756;9.226;2024-03-17T03:42:46;15.43;;;14.03;;
18425;SDS011;9340;48.756;9.226;2024-03-17T03:45:13;15.13;;;13.70;;
18425;SDS011;9340;48.756;9.226;2024-03-17T03:47:40;17.37;;;15.60;;
18425;SDS011;9340;48.756;9.226;2024-03-17T03:50:09;17.30;;;15.60;;
18425;SDS011;9340;48.756;9.226;2024-03-17T03:52:36;16.60;;;14.90;;
18425;SDS011;9340;48.756;9.226;2024-03-17T03:55:06;24.43;;;19.33;;
18425;SDS011;9340;48.756;9.226;2024-03-17T03:57:35;15.97;;;14.47;;
18425;SDS011;9340;48.756;9.226;2024-03-17T04:00:02;17.17;;;14.30;;
18425;SDS011;9340;48.756;9.226;2024-03-17T04:02:30;14.50;;;13.20;;
18425;SDS011;9340;48.756;9.226;2024-03-17T04:04:59;14.10;;;12.80;;
18425;SDS011;9340;48.756;9.226;2024-03-17T04:07:27;15.90;;;14.43;;
18425;SDS011;9340;48.756;9.226;2024-03-17T04:09:54;16.57;;;14.97;;
18425;SDS011;9340;48.756;9.226;2024-03-17T04:12:20;16.40;;;14.70;;
18425;SDS011;9340;48.756;9.226;2024-03-17T04:14:47;14.73;;;13.33;;
18425;SDS011;9340;48.756;9.226;2024-03-17T04:17:17;15.17;;;13.57;;
18425;SDS011;9340;48.756;9.226;2024-03-17T04:19:46;18.13;;;16.20;;
18425;SDS011;9340;48.756;9.226;2024-03-17T04:22:13;17.10;;;15.60;;
18425;SDS011;9340;48.756;9.226;2024-03-17T04:24:41;16.93;;;15.33;;
18425;SDS011;9340;48.756;9.226;2024-03-17T04:27:08;16.97;;;15.33;;
18425;SDS011;9340;48.756;9.226;2024-03-17T04:29:34;17.07;;;15.27;;
18425;SDS011;9340;48.756;9.226;2024-03-17T04:32:01;16.53;;;14.93;;
18425;SDS011;9340;48.756;9.226;2024-03-17T04:34:29;18.00;;;16.23;;
18425;SDS011;9340;48.756;9.226;2024-03-17T04:36:56;15.47;;;13.87;;
18425;SDS011;9340;48.756;9.226;2024-03-17T04:39:23;13.83;;;12.53;;
18425;SDS011;9340;48.756;9.226;2024-03-17T04:41:51;15.10;;;13.50;;
18425;SDS011;9340;48.756;9.226;2024-03-17T04:44:18;14.13;;;12.83;;
18425;SDS011;9340;48.756;9.226;2024-03-17T04:46:44;14.43;;;13.13;;
18425;SDS011;9340;48.756;9.226;2024-03-17T04:49:11;15.37;;;13.87;;
18425;SDS011;9340;48.756;9.226;2024-03-17T04:51:38;14.87;;;13.37;;
18425;SDS011;9340;48.756;9.226;2024-03-17T04:54:05;16.30;;;14.80;;
18425;SDS011;9340;48.756;9.226;2024-03-17T04:56:32;16.97;;;15.17;;
18425;SDS011;9340;48.756;9.226;2024-03-17T04:59:00;14.73;;;13.37;;
18425;SDS011;9340;48.756;9.226;2024-03-17T05:01:27;15.23;;;13.73;;
18425;SDS011;9340;48.756;9.226;2024-03-17T05:03:56;16.00;;;14.47;;
18425;SDS011;9340;48.756;9.226;2024-03-17T05:06:22;16.73;;;15.13;;
18425;SDS011;9340;48.756;9.226;2024-03-17T05:08:49;16.43;;;14.93;;
18425;SDS011;9340;48.756;9.226;2024-03-17T05:11:16;16.80;;;15.23;;
18425;SDS011;9340;48.756;9.226;2024-03-17T05:13:43;17.27;;;15.50;;
18425;SDS011;9340;48.756;9.226;2024-03-17T05:16:11;17.17;;;15.37;;
18425;SDS011;9340;48.756;9.226;2024-03-17T05:18:38;17.30;;;15.60;;
18425;SDS011;9340;48.756;9.226;2024-03-17T05:21:05;17.53;;;15.47;;
18425;SDS011;9340;48.756;9.226;2024-03-17T05:23:33;16.67;;;14.90;;
18425;SDS011;9340;48.756;9.226;2024-03-17T05:26:01;15.70;;;14.20;;
18425;SDS011;9340;48.756;9.226;2024-03-17T05:28:30;16.93;;;15.33;;
18425;SDS011;9340;48.756;9.226;2024-03-17T05:30:57;18.13;;;16.27;;
18425;SDS011;9340;48.756;9.226;2024-03-17T05:33:25;17.03;;;15.33;;
18425;SDS011;9340;48.756;9.226;2024-03-17T05:35:53;17.80;;;16.00;;
18425;SDS011;9340;48.756;9.226;2024-03-17T05:38:21;19.33;;;17.27;;
18425;SDS011;9340;48.756;9.226;2024-03-17T05:40:52;18.73;;;16.73;;
18425;SDS011;9340;48.756;9.226;2024-03-17T05:43:20;18.83;;;16.93;;
18425;SDS011;9340;48.756;9.226;2024-03-17T05:45:47;19.33;;;17.33;;
18425;SDS011;9340;48.756;9.226;2024-03-17T05:48:13;18.67;;;16.77;;
18425;SDS011;9340;48.756;9.226;2024-03-17T05:50:41;17.70;;;16.03;;
18425;SDS011;9340;48.756;9.226;2024-03-17T05:53:08;18.47;;;15.53;;
18425;SDS011;9340;48.756;9.226;2024-03-17T05:55:35;17.07;;;15.37;;
18425;SDS011;9340;48.756;9.226;2024-03-17T05:58:02;17.47;;;15.63;;
18425;SDS011;9340;48.756;9.226;2024-03-17T06:00:29;17.17;;;15.37;;
18425;SDS011;9340;48.756;9.226;2024-03-17T06:02:56;18.37;;;16.47;;
18425;SDS011;9340;48.756;9.226;2024-03-17T06:05:24;17.30;;;15.50;;
18425;SDS011;9340;48.756;9.226;2024-03-17T06:07:53;16.87;;;15.27;;
18425;SDS011;9340;48.756;9.226;2024-03-17T06:10:19;17.30;;;15.70;;
18425;SDS011;9340;48.756;9.226;2024-03-17T06:12:49;17.27;;;15.53;;
18425;SDS011;9340;48.756;9.226;2024-03-17T06:15:16;17.97;;;16.10;;
18425;SDS011;9340;48.756;9.226;2024-03-17T06:17:42;17.10;;;15.40;;
18425;SDS011;9340;48.756;9.226;2024-03-17T06:20:09;15.80;;;14.30;;
18425;SDS011;9340;48.756;9.226;2024-03-17T06:22:38;16.43;;;14.80;;
18425;SDS011;9340;48.756;9.226;2024-03-17T06:25:07;18.07;;;16.27;;
18425;SDS011;9340;48.756;9.226;2024-03-17T06:27:34;16.97;;;15.33;;
18425;SDS011;9340;48.756;9.226;2024-03-17T06:30:01;16.90;;;15.10;;
18425;SDS011;9340;48.756;9.226;2024-03-17T06:32:28;18.23;;;16.53;;
18425;SDS011;9340;48.756;9.226;2024-03-17T06:34:56;18.27;;;16.40;;
18425;SDS011;9340;48.756;9.226;2024-03-17T06:37:23;18.33;;;16.53;;
18425;SDS011;9340;48.756;9.226;2024-03-17T06:39:50;19.47;;;17.57;;
18425;SDS011;9340;48.756;9.226;2024-03-17T06:42:18;18.57;;;16.57;;
18425;SDS011;9340;48.756;9.226;2024-03-17T06:44:45;19.50;;;17.53;;
18425;SDS011;9340;48.756;9.226;2024-03-17T06:47:11;20.40;;;18.40;;
18425;SDS011;9340;48.756;9.226;2024-03-17T06:49:38;19.13;;;17.33;;
18425;SDS011;9340;48.756;9.226;2024-03-17T06:52:05;17.80;;;16.03;;
18425;SDS011;9340;48.756;9.226;2024-03-17T06:54:32;17.30;;;15.57;;
18425;SDS011;9340;48.756;9.226;2024-03-17T06:56:58;17.83;;;16.23;;
18425;SDS011;9340;48.756;9.226;2024-03-17T06:59:26;17.20;;;15.60;;
18425;SDS011;9340;48.756;9.226;2024-03-17T07:01:53;17.90;;;16.13;;
18425;SDS011;9340;48.756;9.226;2024-03-17T07:04:20;17.67;;;16.07;;
18425;SDS011;9340;48.756;9.226;2024-03-17T07:06:47;15.33;;;13.93;;
18425;SDS011;9340;48.756;9.226;2024-03-17T07:09:15;13.90;;;12.77;;
18425;SDS011;9340;48.756;9.226;2024-03-17T07:11:42;14.00;;;12.80;;
18425;SDS011;9340;48.756;9.226;2024-03-17T07:14:10;14.00;;;12.80;;
18425;SDS011;9340;48.756;9.226;2024-03-17T07:16:38;14.23;;;12.93;;
18425;SDS011;9340;48.756;9.226;2024-03-17T07:19:04;15.30;;;14.00;;
18425;SDS011;9340;48.756;9.226;2024-03-17T07:21:31;14.47;;;13.07;;
18425;SDS011;9340;48.756;9.226;2024-03-17T07:23:58;16.43;;;14.83;;
18425;SDS011;9340;48.756;9.226;2024-03-17T07:26:29;16.07;;;14.73;;
18425;SDS011;9340;48.756;9.226;2024-03-17T07:28:56;15.17;;;13.77;;
18425;SDS011;9340;48.756;9.226;2024-03-17T07:31:22;14.53;;;13.33;;
18425;SDS011;9340;48.756;9.226;2024-03-17T07:33:50;15.13;;;13.77;;
18425;SDS011;9340;48.756;9.226;2024-03-17T07:36:17;14.63;;;13.23;;
18425;SDS011;9340;48.756;9.226;2024-03-17T07:38:44;13.87;;;12.57;;
18425;SDS011;9340;48.756;9.226;2024-03-17T07:41:11;12.87;;;11.87;;
18425;SDS011;9340;48.756;9.226;2024-03-17T07:43:38;14.00;;;12.70;;
18425;SDS011;9340;48.756;9.226;2024-03-17T07:46:06;14.23;;;13.03;;
18425;SDS011;9340;48.756;9.226;2024-03-17T07:48:35;13.50;;;12.30;;
18425;SDS011;9340;48.756;9.226;2024-03-17T07:51:04;12.77;;;11.67;;
18425;SDS011;9340;48.756;9.226;2024-03-17T07:53:32;12.67;;;11.53;;
18425;SDS011;9340;48.756;9.226;2024-03-17T07:56:00;11.30;;;10.37;;
18425;SDS011;9340;48.756;9.226;2024-03-17T07:58:29;12.37;;;11.17;;
18425;SDS011;9340;48.756;9.226;2024-03-17T08:00:58;10.90;;;9.97;;
18425;SDS011;9340;48.756;9.226;2024-03-17T08:03:25;12.53;;;11.23;;
18425;SDS011;9340;48.756;9.226;2024-03-17T08:05:52;12.97;;;11.73;;
18425;SDS011;9340;48.756;9.226;2024-03-17T08:08:21;10.93;;;10.07;;
18425;SDS011;9340;48.756;9.226;2024-03-17T08:10:47;11.67;;;10.47;;
18425;SDS011;9340;48.756;9.226;2024-03-17T08:13:14;10.47;;;9.57;;
18425;SDS011;9340;48.756;9.226;2024-03-17T08:15:41;10.67;;;9.77;;
18425;SDS011;9340;48.756;9.226;2024-03-17T08:18:08;10.53;;;9.63;;
18425;SDS011;9340;48.756;9.226;2024-03-17T08:20:36;9.43;;;8.63;;
18425;SDS011;9340;48.756;9.226;2024-03-17T08:23:03;8.97;;;8.20;;
18425;SDS011;9340;48.756;9.226;2024-03-17T08:25:32;9.37;;;8.57;;
18425;SDS011;9340;48.756;9.226;2024-03-17T08:27:59;9.00;;;8.10;;
18425;SDS011;9340;48.756;9.226;2024-03-17T08:30:25;9.63;;;8.83;;
18425;SDS011;9340;48.756;9.226;2024-03-17T08:32:52;8.77;;;8.07;;
18425;SDS011;9340;48.756;9.226;2024-03-17T08:35:19;8.47;;;7.70;;
18425;SDS011;9340;48.756;9.226;2024-03-17T08:37:45;8.93;;;8.13;;
18425;SDS011;9340;48.756;9.226;2024-03-17T08:40:12;9.03;;;8.23;;
18425;SDS011;9340;48.756;9.226;2024-03-17T08:42:40;9.60;;;8.70;;
18425;SDS011;9340;48.756;9.226;2024-03-17T08:45:07;8.80;;;8.10;;
18425;SDS011;9340;48.756;9.226;2024-03-17T08:47:36;9.43;;;8.63;;
18425;SDS011;9340;48.756;9.226;2024-03-17T08:50:03;8.00;;;7.33;;
18425;SDS011;9340;48.756;9.226;2024-03-17T08:52:30;8.53;;;7.73;;
18425;SDS011;9340;48.756;9.226;2024-03-17T08:54:57;7.63;;;7.00;;
18425;SDS011;9340;48.756;9.226;2024-03-17T08:57:24;7.47;;;6.87;;
18425;SDS011;9340;48.756;9.226;2024-03-17T08:59:52;7.63;;;7.00;;
18425;SDS011;9340;48.756;9.226;2024-03-17T09:02:19;7.33;;;6.63;;
18425;SDS011;9340;48.756;9.226;2024-03-17T09:04:46;6.77;;;6.17;;
18425;SDS011;9340;48.756;9.226;2024-03-17T09:07:13;7.67;;;6.63;;
18425;SDS011;9340;48.756;9.226;2024-03-17T09:09:40;7.20;;;6.60;;
18425;SDS011;9340;48.756;9.226;2024-03-17T09:12:07;6.87;;;6.27;;
18425;SDS011;9340;48.756;9.226;2024-03-17T09:14:34;6.37;;;5.80;;
18425;SDS011;9340;48.756;9.226;2024-03-17T09:17:03;6.67;;;6.07;;
18425;SDS011;9340;48.756;9.226;2024-03-17T09:19:30;6.63;;;6.10;;
18425;SDS011;9340;48.756;9.226;2024-03-17T09:21:58;6.13;;;5.53;;
18425;SDS011;9340;48.756;9.226;2024-03-17T09:24:25;6.40;;;5.87;;
18425;SDS011;9340;48.756;9.226;2024-03-17T09:26:51;6.10;;;5.60;;
18425;SDS011;9340;48.756;9.226;2024-03-17T09:29:19;6.23;;;5.50;;
18425;SDS011;9340;48.756;9.226;2024-03-17T09:31:45;6.07;;;5.53;;
18425;SDS011;9340;48.756;9.226;2024-03-17T09:34:13;5.73;;;5.20;;
18425;SDS011;9340;48.756;9.226;2024-03-17T09:36:40;7.37;;;6.67;;
18425;SDS011;9340;48.756;9.226;2024-03-17T09:39:08;5.77;;;5.27;;
18425;SDS011;9340;48.756;9.226;2024-03-17T09:41:36;5.20;;;4.70;;
18425;SDS011;9340;48.756;9.226;2024-03-17T09:44:04;5.20;;;4.80;;
18425;SDS011;9340;48.756;9.226;2024-03-17T09:46:35;4.37;;;4.03;;
18425;SDS011;9340;48.756;9.226;2024-03-17T09:49:02;5.97;;;4.30;;
18425;SDS011;9340;48.756;9.226;2024-03-17T09:51:30;5.10;;;4.60;;
18425;SDS011;9340;48.756;9.226;2024-03-17T09:53:57;4.47;;;3.77;;
18425;SDS011;9340;48.756;9.226;2024-03-17T09:56:24;5.20;;;4.13;;
18425;SDS011;9340;48.756;9.226;2024-03-17T09:58:51;4.60;;;4.20;;
18425;SDS011;9340;48.756;9.226;2024-03-17T10:01:18;3.95;;;3.60;;
18425;SDS011;9340;48.756;9.226;2024-03-17T10:03:45;4.23;;;3.87;;
18425;SDS011;9340;48.756;9.226;2024-03-17T10:06:16;3.90;;;3.60;;
18425;SDS011;9340;48.756;9.226;2024-03-17T10:08:45;3.83;;;3.37;;
18425;SDS011;9340;48.756;9.226;2024-03-17T10:11:14;4.20;;;3.70;;
18425;SDS011;9340;48.756;9.226;2024-03-17T10:13:42;4.57;;;4.00;;
18425;SDS011;9340;48.756;9.226;2024-03-17T10:16:21;5.37;;;3.87;;
18425;SDS011;9340;48.756;9.226;2024-03-17T10:18:50;4.67;;;3.50;;
18425;SDS011;9340;48.756;9.226;2024-03-17T10:21:24;4.77;;;4.23;;
18425;SDS011;9340;48.756;9.226;2024-03-17T10:24:04;3.90;;;3.57;;
18425;SDS011;9340;48.756;9.226;2024-03-17T10:26:35;6.10;;;3.40;;
18425;SDS011;9340;48.756;9.226;2024-03-17T10:29:04;4.47;;;4.07;;
18425;SDS011;9340;48.756;9.226;2024-03-17T10:31:31;3.97;;;3.63;;
18425;SDS011;9340;48.756;9.226;2024-03-17T10:34:01;4.17;;;3.60;;
18425;SDS011;9340;48.756;9.226;2024-03-17T10:36:28;5.00;;;3.77;;
18425;SDS011;9340;48.756;9.226;2024-03-17T10:38:54;4.13;;;3.72;;
18425;SDS011;9340;48.756;9.226;2024-03-17T10:41:22;5.57;;;3.95;;
18425;SDS011;9340;48.756;9.226;2024-03-17T10:43:51;3.95;;;3.65;;
18425;SDS011;9340;48.756;9.226;2024-03-17T10:46:19;4.18;;;3.85;;
18425;SDS011;9340;48.756;9.226;2024-03-17T10:48:46;3.53;;;3.22;;
18425;SDS011;9340;48.756;9.226;2024-03-17T10:51:16;4.38;;;3.42;;
18425;SDS011;9340;48.756;9.226;2024-03-17T10:53:44;4.13;;;3.25;;
18425;SDS011;9340;48.756;9.226;2024-03-17T10:56:15;3.65;;;3.35;;
18425;SDS011;9340;48.756;9.226;2024-03-17T10:58:46;3.92;;;3.25;;
18425;SDS011;9340;48.756;9.226;2024-03-17T11:01:17;4.20;;;3.80;;
18425;SDS011;9340;48.756;9.226;2024-03-17T11:03:46;3.42;;;3.13;;
18425;SDS011;9340;48.756;9.226;2024-03-17T11:06:15;3.92;;;3.00;;
18425;SDS011;9340;48.756;9.226;2024-03-17T11:08:43;3.25;;;2.95;;
18425;SDS011;9340;48.756;9.226;2024-03-17T11:11:10;3.35;;;3.05;;
18425;SDS011;9340;48.756;9.226;2024-03-17T11:13:37;6.40;;;3.05;;
18425;SDS011;9340;48.756;9.226;2024-03-17T11:16:06;3.45;;;2.78;;
18425;SDS011;9340;48.756;9.226;2024-03-17T11:18:51;3.08;;;2.78;;
18425;SDS011;9340;48.756;9.226;2024-03-17T11:21:20;3.60;;;3.15;;
18425;SDS011;9340;48.756;9.226;2024-03-17T11:23:54;6.13;;;3.40;;
18425;SDS011;9340;48.756;9.226;2024-03-17T11:26:26;3.92;;;2.90;;
18425;SDS011;9340;48.756;9.226;2024-03-17T11:28:54;3.08;;;2.78;;
18425;SDS011;9340;48.756;9.226;2024-03-17T11:34:27;3.88;;;3.35;;
18425;SDS011;9340;48.756;9.226;2024-03-17T11:36:59;4.85;;;2.95;;
18425;SDS011;9340;48.756;9.226;2024-03-17T11:42:14;3.92;;;2.95;;
18425;SDS011;9340;48.756;9.226;2024-03-17T11:44:42;5.35;;;3.47;;
18425;SDS011;9340;48.756;9.226;2024-03-17T11:47:10;3.55;;;2.67;;
18425;SDS011;9340;48.756;9.226;2024-03-17T11:49:37;3.97;;;3.22;;
18425;SDS011;9340;48.756;9.226;2024-03-17T11:52:04;2.50;;;2.30;;
18425;SDS011;9340;48.756;9.226;2024-03-17T11:54:34;3.10;;;2.10;;
18425;SDS011;9340;48.756;9.226;2024-03-17T11:57:02;3.20;;;2.90;;
18425;SDS011;9340;48.756;9.226;2024-03-17T11:59:30;4.53;;;3.28;;
18425;SDS011;9340;48.756;9.226;2024-03-17T12:01:57;4.72;;;3.30;;
18425;SDS011;9340;48.756;9.226;2024-03-17T12:04:25;3.33;;;3.03;;
18425;SDS011;9340;48.756;9.226;2024-03-17T12:06:52;3.85;;;2.90;;
18425;SDS011;9340;48.756;9.226;2024-03-17T12:09:20;3.45;;;2.42;;
18425;SDS011;9340;48.756;9.226;2024-03-17T12:11:47;2.60;;;2.40;;
18425;SDS011;9340;48.756;9.226;2024-03-17T12:14:15;3.08;;;2.78;;
18425;SDS011;9340;48.756;9.226;2024-03-17T12:16:49;4.93;;;2.75;;
18425;SDS011;9340;48.756;9.226;2024-03-17T12:19:16;3.30;;;2.38;;
18425;SDS011;9340;48.756;9.226;2024-03-17T12:21:47;3.63;;;2.60;;
18425;SDS011;9340;48.756;9.226;2024-03-17T12:24:16;3.53;;;2.38;;
18425;SDS011;9340;48.756;9.226;2024-03-17T12:26:44;3.60;;;2.65;;
18425;SDS011;9340;48.756;9.226;2024-03-17T12:32:02;3.65;;;3.10;;
18425;SDS011;9340;48.756;9.226;2024-03-17T12:34:31;3.42;;;2.88;;
18425;SDS011;9340;48.756;9.226;2024-03-17T12:37:00;4.93;;;3.55;;
18425;SDS011;9340;48.756;9.226;2024-03-17T12:39:27;4.65;;;4.10;;
18425;SDS011;9340;48.756;9.226;2024-03-17T12:42:01;5.43;;;4.60;;
18425;SDS011;9340;48.756;9.226;2024-03-17T12:44:27;4.80;;;4.40;;
18425;SDS011;9340;48.756;9.226;2024-03-17T12:46:55;5.40;;;4.90;;
18425;SDS011;9340;48.756;9.226;2024-03-17T12:49:21;5.55;;;4.80;;
18425;SDS011;9340;48.756;9.226;2024-03-17T12:51:50;4.53;;;4.13;;
18425;SDS011;9340;48.756;9.226;2024-03-17T12:54:17;6.03;;;5.43;;
18425;SDS011;9340;48.756;9.226;2024-03-17T12:56:46;6.40;;;3.75;;
18425;SDS011;9340;48.756;9.226;2024-03-17T12:59:40;4.05;;;3.65;;
18425;SDS011;9340;48.756;9.226;2024-03-17T13:02:25;4.05;;;3.75;;
18425;SDS011;9340;48.756;9.226;2024-03-17T13:05:05;4.13;;;3.72;;
18425;SDS011;9340;48.756;9.226;2024-03-17T13:07:34;4.57;;;3.65;;
18425;SDS011;9340;48.756;9.226;2024-03-17T13:10:02;4.63;;;3.72;;
18425;SDS011;9340;48.756;9.226;2024-03-17T13:12:32;4.22;;;3.83;;
18425;SDS011;9340;48.756;9.226;2024-03-17T13:14:59;4.63;;;4.13;;
18425;SDS011;9340;48.756;9.226;2024-03-17T13:17:26;4.00;;;3.60;;
18425;SDS011;9340;48.756;9.226;2024-03-17T13:19:54;4.18;;;3.88;;
18425;SDS011;9340;48.756;9.226;2024-03-17T13:22:20;4.20;;;3.70;;
18425;SDS011;9340;48.756;9.226;2024-03-17T13:24:47;3.80;;;3.35;;
18425;SDS011;9340;48.756;9.226;2024-03-17T13:27:16;9.93;;;7.63;;
18425;SDS011;9340;48.756;9.226;2024-03-17T13:29:46;4.05;;;3.60;;
18425;SDS011;9340;48.756;9.226;2024-03-17T13:32:14;6.13;;;5.63;;
18425;SDS011;9340;48.756;9.226;2024-03-17T13:34:42;4.40;;;4.10;;
18425;SDS011;9340;48.756;9.226;2024-03-17T13:37:09;5.00;;;4.60;;
18425;SDS011;9340;48.756;9.226;2024-03-17T13:39:36;5.57;;;4.28;;
18425;SDS011;9340;48.756;9.226;2024-03-17T13:42:03;4.20;;;3.80;;
18425;SDS011;9340;48.756;9.226;2024-03-17T13:44:32;4.78;;;4.38;;
18425;SDS011;9340;48.756;9.226;2024-03-17T13:47:01;4.50;;;4.10;;
18425;SDS011;9340;48.756;9.226;2024-03-17T13:49:28;4.43;;;4.13;;
18425;SDS011;9340;48.756;9.226;2024-03-17T13:51:55;6.03;;;3.95;;
18425;SDS011;9340;48.756;9.226;2024-03-17T13:54:22;4.13;;;3.72;;
18425;SDS011;9340;48.756;9.226;2024-03-17T13:56:49;4.70;;;3.35;;
18425;SDS011;9340;48.756;9.226;2024-03-17T13:59:16;5.82;;;4.22;;
18425;SDS011;9340;48.756;9.226;2024-03-17T14:01:44;4.30;;;3.90;;
18425;SDS011;9340;48.756;9.226;2024-03-17T14:04:15;4.70;;;3.88;;
18425;SDS011;9340;48.756;9.226;2024-03-17T14:06:43;4.38;;;3.88;;
18425;SDS011;9340;48.756;9.226;2024-03-17T14:09:11;4.18;;;3.78;;
18425;SDS011;9340;48.756;9.226;2024-03-17T14:11:38;5.07;;;4.13;;
18425;SDS011;9340;48.756;9.226;2024-03-17T14:14:05;4.10;;;3.67;;
18425;SDS011;9340;48.756;9.226;2024-03-17T14:16:33;4.95;;;3.38;;
18425;SDS011;9340;48.756;9.226;2024-03-17T14:19:01;5.88;;;4.30;;
18425;SDS011;9340;48.756;9.226;2024-03-17T14:21:28;3.50;;;3.20;;
18425;SDS011;9340;48.756;9.226;2024-03-17T14:23:55;3.70;;;2.80;;
18425;SDS011;9340;48.756;9.226;2024-03-17T14:26:22;3.42;;;3.13;;
18425;SDS011;9340;48.756;9.226;2024-03-17T14:28:49;3.33;;;3.03;;
18425;SDS011;9340;48.756;9.226;2024-03-17T14:31:16;3.88;;;3.22;;
18425;SDS011;9340;48.756;9.226;2024-03-17T14:33:43;3.90;;;3.50;;
18425;SDS011;9340;48.756;9.226;2024-03-17T14:36:11;6.38;;;3.17;;
18425;SDS011;9340;48.756;9.226;2024-03-17T14:38:38;4.13;;;3.33;;
18425;SDS011;9340;48.756;9.226;2024-03-17T14:41:05;3.67;;;3.22;;
18425;SDS011;9340;48.756;9.226;2024-03-17T14:43:32;3.58;;;3.28;;
18425;SDS011;9340;48.756;9.226;2024-03-17T14:46:03;3.60;;;3.30;;
18425;SDS011;9340;48.756;9.226;2024-03-17T14:48:30;4.18;;;3.40;;
18425;SDS011;9340;48.756;9.226;2024-03-17T14:50:56;4.40;;;3.30;;
18425;SDS011;9340;48.756;9.226;2024-03-17T14:53:24;3.17;;;2.97;;
18425;SDS011;9340;48.756;9.226;2024-03-17T14:55:51;4.45;;;3.45;;
18425;SDS011;9340;48.756;9.226;2024-03-17T14:58:18;3.97;;;3.03;;
18425;SDS011;9340;48.756;9.226;2024-03-17T15:00:44;4.55;;;3.65;;